VTBSVDSR

Guest
Details From VTBS - Bangkok Suvarnabhumi Intl
To VDSR - Siem Reap
Flight Number -
Tags decoded
Created
Modified
Stats Distance 184 nm / 340 km
Max Altitude 0 ft / 0 m
Waypoints 5
Social Downloads 5
Likes 0
Share VATSIM

Download

Looking for another format? Having issues loading an existing format? Contact us
Advertisement - Login to hide

Notes

Requested: VTBS COSMO GOMES B2O4 SRE VDSR Unmatched points: B2O4

Route

VTBS COSMO GOMES SRE VDSR

ID Type Via Altitude Latitude Longitude Leg Dist Tot Dist Heading (true) Name
O VTBS APT - 0 ft / 0 m 13.68046˚ 100.74751˚ - 0 nm - Bangkok Suvarnabhumi Intl
COSMO FIX - 0 ft / 0 m 13.64550˚ 101.07183˚ 19 nm 19 nm 96° / 96° -
GOMES FIX - 0 ft / 0 m 13.40171˚ 101.58492˚ 33 nm 52 nm 116° / 116° -
SRE VOR - 0 ft / 0 m 13.41500˚ 103.82167˚ 130 nm 183 nm 89° / 90° SIEM REAP VOR-DME
O VDSR APT - 0 ft / 0 m 13.41067˚ 103.81283˚ 0 nm 183 nm 243° / 243° Siem Reap

Altitude Profile

Advertisement - Login to hide

Weather


0- 5 10 15 20 25 30 35+ Temperature / ° C

Clouds and Precipitation
Forecast for 2018-05-26 06:00 UTC. Updated 5 hours ago

Ground ~20,000 ft ~40,000 ft Winds

VTBS

Details ICAO VTBS (BKK)
Name Bangkok Suvarnabhumi Intl
Region Thailand
Timezone Asia/Bangkok (UTC+7.0)
Stats Elevation 5 ft / 2 m (AMSL)
Location 13.680456° 100.747512°
Runways 2
Magnetic Variation 0.569° W

METAR

VTBS 261030Z 18011KT 9999 FEW018CB SCT030 31/24 Q1007 TEMPO FM1050 TL1140 5000 TSRA

Decode

TAF

TAF VTBS 260500Z 2606/2712 20008KT 9999 SCT025 TEMPO 2607/2612 VRB10KT 5000 TSRA FEW018CB SCT030 BKN100 BECMG 2620/2622 12005KT BECMG 2703/2705 20008KT TEMPO 2703/2710 VRB10KT 5000 TSRA FEW018CB SCT030 BKN100

Decode

Departure Runways

ID Width Length Bearing (true) Bearing (mag) Surface Threshold Offset Overrun Length
01L 200 ft / 61 m 12,194 ft / 3,717 m 14.26° 14.83° Asphalt 0 ft / 0 m 400 ft / 122 m
01R 200 ft / 61 m 13,181 ft / 4,018 m 14.19° 14.76° Asphalt 0 ft / 0 m 400 ft / 122 m
19L 200 ft / 61 m 13,181 ft / 4,018 m 194.19° 194.76° Asphalt 0 ft / 0 m 400 ft / 122 m
19R 200 ft / 61 m 12,194 ft / 3,717 m 194.26° 194.83° Asphalt 0 ft / 0 m 400 ft / 122 m

VDSR

Details ICAO VDSR (REP)
Name Siem Reap
Region Cambodia
Timezone Asia/Phnom_Penh (UTC+7.0)
Stats Elevation 60 ft / 18 m (AMSL)
Location 13.410667° 103.812832°
Runways 1
Magnetic Variation 0.624° W

METAR

VDSR 261030Z 23010KT 7000 -RA SCT015 FEW017CB SCT040 25/25 Q1006 CB

Decode

TAF

TAF VDSR 260500Z 2606/2624 18006KT 9999 SCT017 TEMPO 2607/2612 5000 TSRA SCT015 FEW017CB

Decode

Destination Runways

ID Width Length Bearing (true) Bearing (mag) Surface Threshold Offset Overrun Length
05 148 ft / 45 m 8,384 ft / 2,555 m 47.81° 48.43° Concrete 450 ft / 137 m 0 ft / 0 m
23 148 ft / 45 m 8,384 ft / 2,555 m 227.82° 228.44° Concrete 450 ft / 137 m 0 ft / 0 m

Popular Alternatives